Time;durP1;ratioP1;P1;durP2;ratioP2;P2;SDS_P1;SDS_P2;PMS_P1;PMS_P2;Temp;Humidity;BMP_temperature;BMP_pressure;BME280_temperature;BME280_humidity;BME280_pressure;Samples;Min_cycle;Max_cycle;Signal;HPM_P1;HPM_P2
2022/04/18 00:01:02;;;;;;;6.40;2.78;;;8.10;72.20;;;;;;5012652;28;20369;-71
2022/04/18 00:04:06;;;;;;;9.98;3.47;;;8.10;72.70;;;;;;5013358;28;20034;-71
2022/04/18 00:07:10;;;;;;;4.72;2.97;;;8.20;71.90;;;;;;5012153;28;20038;-70
2022/04/18 00:10:14;;;;;;;9.80;3.72;;;8.20;71.00;;;;;;5012567;28;20042;-70
2022/04/18 00:13:18;;;;;;;6.80;3.10;;;8.10;71.50;;;;;;5011107;28;20037;-70
2022/04/18 00:16:23;;;;;;;7.68;2.80;;;8.20;69.80;;;;;;5012133;28;20046;-71
2022/04/18 00:19:27;;;;;;;10.82;3.05;;;8.30;69.90;;;;;;5012400;28;20038;-71
2022/04/18 00:22:31;;;;;;;4.00;2.40;;;8.30;70.90;;;;;;5012740;28;20041;-70
2022/04/18 00:25:35;;;;;;;9.77;3.28;;;8.40;69.30;;;;;;5012558;28;20061;-70
2022/04/18 00:28:39;;;;;;;7.60;2.75;;;8.50;69.30;;;;;;5012206;28;20046;-70
2022/04/18 00:31:44;;;;;;;5.13;2.53;;;8.50;68.00;;;;;;5011955;28;20398;-70
2022/04/18 00:34:50;;;;;;;6.40;2.45;;;8.50;67.00;;;;;;5010961;28;20394;-71
2022/04/18 00:37:54;;;;;;;6.85;2.60;;;8.50;68.30;;;;;;5021648;28;20029;-71
2022/04/18 00:40:59;;;;;;;15.82;3.10;;;8.50;67.00;;;;;;5012152;28;20392;-71
2022/04/18 00:44:03;;;;;;;5.75;2.30;;;8.70;66.10;;;;;;5011874;28;20041;-71
2022/04/18 00:47:07;;;;;;;6.57;2.70;;;8.70;66.90;;;;;;5010333;28;20034;-70
2022/04/18 00:50:11;;;;;;;5.78;2.83;;;8.70;66.20;;;;;;5011685;28;20046;-70
2022/04/18 00:53:15;;;;;;;6.47;2.95;;;8.70;67.10;;;;;;5011379;28;20041;-70
2022/04/18 00:56:22;;;;;;;7.63;3.67;;;8.80;65.20;;;;;;5011466;28;20042;-70
2022/04/18 00:59:28;;;;;;;5.55;2.80;;;8.70;66.10;;;;;;5011645;28;20038;-70
2022/04/18 01:02:33;;;;;;;7.05;3.20;;;8.60;67.00;;;;;;5010960;28;20046;-70
2022/04/18 01:05:37;;;;;;;10.93;3.55;;;8.50;66.80;;;;;;5011185;28;20037;-70
2022/04/18 01:08:42;;;;;;;8.88;3.00;;;8.60;67.10;;;;;;5010678;28;20045;-71
2022/04/18 01:11:49;;;;;;;8.40;3.13;;;8.60;67.00;;;;;;5011836;28;20042;-70
2022/04/18 01:15:31;;;;;;;7.63;3.65;;;8.80;67.30;;;;;;5012241;28;20045;-71
2022/04/18 01:19:06;;;;;;;4.55;2.58;;;8.70;66.70;;;;;;5022607;28;20030;-65
2022/04/18 01:22:33;;;;;;;7.68;3.35;;;8.60;66.70;;;;;;5022728;28;20493;-71
2022/04/18 01:29:36;;;;;;;17.25;3.42;;;8.60;67.70;;;;;;5010386;28;20056;-70
2022/04/18 01:32:40;;;;;;;10.98;3.63;;;8.50;68.30;;;;;;5021702;28;20050;-70
2022/04/18 01:35:44;;;;;;;6.35;3.22;;;8.50;68.60;;;;;;5012567;28;20037;-71
2022/04/18 01:38:49;;;;;;;4.78;2.95;;;8.40;68.30;;;;;;5022154;28;20046;-71
2022/04/18 01:41:54;;;;;;;9.70;3.40;;;8.50;67.90;;;;;;5022669;28;20042;-63
2022/04/18 01:45:00;;;;;;;7.05;3.17;;;8.50;67.90;;;;;;5010532;28;20042;-63
2022/04/18 01:48:05;;;;;;;5.90;3.28;;;8.50;67.80;;;;;;5010190;28;20477;-64
2022/04/18 01:51:10;;;;;;;8.40;3.17;;;8.50;67.70;;;;;;5011006;28;20037;-64
2022/04/18 01:54:14;;;;;;;7.85;3.42;;;8.40;68.00;;;;;;5011282;28;20046;-64
2022/04/18 01:57:18;;;;;;;7.57;3.42;;;8.40;68.20;;;;;;5022778;28;20042;-72
2022/04/18 02:00:23;;;;;;;4.95;3.15;;;8.40;68.30;;;;;;5010928;28;20038;-62
2022/04/18 02:03:27;;;;;;;10.05;4.03;;;8.50;67.80;;;;;;5021266;28;20042;-62
2022/04/18 02:06:32;;;;;;;6.53;2.92;;;8.40;68.50;;;;;;5010718;28;20045;-63
2022/04/18 02:09:38;;;;;;;7.63;3.45;;;8.40;67.70;;;;;;5010521;28;20042;-70
2022/04/18 02:12:43;;;;;;;6.70;3.05;;;8.40;68.00;;;;;;5012121;28;20477;-70
2022/04/18 02:15:48;;;;;;;4.90;2.88;;;8.50;66.60;;;;;;5025735;28;20046;-70
2022/04/18 02:18:53;;;;;;;15.85;3.22;;;8.40;66.70;;;;;;5003013;28;20496;-72
2022/04/18 02:21:57;;;;;;;8.32;2.90;;;8.30;66.10;;;;;;5014177;28;20057;-72
2022/04/18 02:25:02;;;;;;;5.22;3.03;;;8.20;66.10;;;;;;5015060;28;20042;-71
2022/04/18 02:28:06;;;;;;;6.05;3.28;;;8.10;66.10;;;;;;5013502;28;20038;-71
2022/04/18 02:31:19;;;;;;;6.78;2.90;;;8.10;66.40;;;;;;5012193;28;20041;-71
2022/04/18 02:34:23;;;;;;;4.85;2.47;;;8.10;66.30;;;;;;5014017;28;20042;-72
2022/04/18 02:37:28;;;;;;;5.97;2.72;;;8.10;66.40;;;;;;5014404;28;20038;-71
2022/04/18 02:40:32;;;;;;;9.52;2.97;;;8.10;66.20;;;;;;5014144;28;20222;-70
2022/04/18 02:43:36;;;;;;;8.05;2.83;;;8.10;66.30;;;;;;5024683;28;20038;-72
2022/04/18 02:46:46;;;;;;;4.40;3.13;;;8.10;65.40;;;;;;5012465;28;20393;-71
2022/04/18 02:49:51;;;;;;;7.75;3.30;;;8.10;65.10;;;;;;5024399;28;20046;-71
2022/04/18 02:52:56;;;;;;;4.32;2.65;;;8.20;64.20;;;;;;5012273;28;20038;-71
2022/04/18 02:56:12;;;;;;;5.07;2.33;;;8.20;64.70;;;;;;5012405;28;20046;-71
2022/04/18 02:59:21;;;;;;;3.65;2.13;;;8.00;65.40;;;;;;5013985;28;20038;-73
2022/04/18 03:02:25;;;;;;;4.63;2.38;;;8.10;65.50;;;;;;5013610;28;20374;-72
2022/04/18 03:05:29;;;;;;;5.63;2.50;;;8.20;64.60;;;;;;5013635;28;20038;-72
2022/04/18 03:08:35;;;;;;;7.13;2.50;;;8.10;64.90;;;;;;5013906;28;20042;-72
2022/04/18 03:11:40;;;;;;;6.88;2.25;;;8.10;65.00;;;;;;5024769;28;20046;-72
2022/04/18 03:14:44;;;;;;;6.72;2.58;;;8.00;65.60;;;;;;5000349;28;20481;-64
2022/04/18 03:17:49;;;;;;;4.55;2.40;;;8.10;64.20;;;;;;5012170;28;20030;-63
2022/04/18 03:20:54;;;;;;;15.05;2.58;;;8.00;64.70;;;;;;5012478;28;20042;-63
2022/04/18 03:23:58;;;;;;;10.35;2.30;;;8.00;64.70;;;;;;5012355;28;20389;-64
2022/04/18 03:27:12;;;;;;;5.32;3.38;;;7.80;65.60;;;;;;5023603;28;20392;-63
2022/04/18 03:30:18;;;;;;;4.90;2.97;;;7.60;67.30;;;;;;5013703;28;20042;-72
2022/04/18 03:33:25;;;;;;;7.43;2.58;;;7.70;64.80;;;;;;5012538;28;20029;-72
2022/04/18 03:40:01;;;;;;;3.90;2.38;;;7.60;66.30;;;;;;5012331;28;20037;-73
2022/04/18 03:43:07;;;;;;;3.70;2.40;;;7.50;66.10;;;;;;5024615;28;20030;-72
2022/04/18 03:46:12;;;;;;;4.40;2.30;;;7.80;64.20;;;;;;5013358;28;20042;-63
2022/04/18 03:49:15;;;;;;;4.70;2.17;;;7.80;65.00;;;;;;5012849;28;20037;-63
2022/04/18 03:52:25;;;;;;;4.25;2.15;;;7.70;65.30;;;;;;5024107;28;20022;-63
2022/04/18 03:55:33;;;;;;;4.32;2.63;;;7.50;66.30;;;;;;5011681;28;20038;-63
2022/04/18 03:58:45;;;;;;;4.15;2.20;;;7.40;66.60;;;;;;5012073;28;20042;-63
2022/04/18 04:01:51;;;;;;;4.93;2.58;;;7.30;66.50;;;;;;5023416;28;20049;-63
2022/04/18 04:04:56;;;;;;;6.50;2.10;;;7.30;65.50;;;;;;5012052;28;20046;-63
2022/04/18 04:08:01;;;;;;;7.93;2.90;;;7.30;65.90;;;;;;5022714;28;20029;-63
2022/04/18 04:11:10;;;;;;;5.20;2.40;;;7.20;65.90;;;;;;5022845;28;20049;-63
2022/04/18 04:14:16;;;;;;;4.57;2.47;;;7.20;66.30;;;;;;5010433;28;20374;-63
2022/04/18 04:17:22;;;;;;;7.20;2.60;;;7.40;65.30;;;;;;5011203;28;20393;-63
2022/04/18 04:20:27;;;;;;;5.88;2.22;;;7.70;62.20;;;;;;5011198;28;20033;-63
2022/04/18 04:23:32;;;;;;;4.15;2.25;;;7.90;63.70;;;;;;5011390;28;20038;-63
2022/04/18 04:26:44;;;;;;;4.87;2.63;;;7.70;66.00;;;;;;5022271;28;20030;-63
2022/04/18 04:29:51;;;;;;;4.70;2.53;;;7.40;66.50;;;;;;5012073;28;20054;-63
2022/04/18 04:33:04;;;;;;;5.28;2.45;;;7.70;65.10;;;;;;5023825;28;20370;-64
2022/04/18 04:36:12;;;;;;;3.45;2.10;;;7.40;66.50;;;;;;5021796;28;20046;-63
2022/04/18 04:39:17;;;;;;;4.93;2.22;;;7.10;67.80;;;;;;5011402;28;20358;-63
2022/04/18 04:42:22;;;;;;;5.07;1.95;;;7.00;67.50;;;;;;5010932;28;20037;-64
2022/04/18 04:45:27;;;;;;;4.53;2.40;;;7.00;68.00;;;;;;5011201;28;20041;-63
2022/04/18 04:48:50;;;;;;;7.43;2.95;;;7.00;68.10;;;;;;5011643;28;20041;-63
2022/04/18 04:51:57;;;;;;;4.55;2.30;;;6.90;68.90;;;;;;5010796;28;20042;-64
2022/04/18 04:55:02;;;;;;;5.43;2.35;;;6.80;69.40;;;;;;5010465;28;20057;-63
2022/04/18 04:58:21;;;;;;;7.13;2.40;;;6.80;69.30;;;;;;5021752;28;20026;-63
2022/04/18 05:01:33;;;;;;;4.53;2.00;;;6.60;71.10;;;;;;5022156;28;20037;-63
2022/04/18 05:04:41;;;;;;;4.38;2.55;;;6.60;69.60;;;;;;5010715;28;20382;-63
2022/04/18 05:07:49;;;;;;;5.22;2.70;;;6.70;70.30;;;;;;5021314;28;20481;-63
2022/04/18 05:10:59;;;;;;;6.90;1.98;;;6.60;70.60;;;;;;5010510;28;20366;-64
2022/04/18 05:14:15;;;;;;;7.07;3.38;;;6.60;70.90;;;;;;5009708;28;20037;-63
2022/04/18 05:17:43;;;;;;;5.05;2.90;;;6.80;70.70;;;;;;5012445;28;20038;-64
2022/04/18 05:20:49;;;;;;;4.95;2.15;;;7.30;69.10;;;;;;5010583;28;20038;-64
2022/04/18 05:23:56;;;;;;;4.07;2.50;;;10.20;65.90;;;;;;5010101;28;20038;-63
2022/04/18 05:27:00;;;;;;;5.53;2.03;;;13.70;61.40;;;;;;5009695;28;20049;-63
2022/04/18 05:30:06;;;;;;;4.65;2.00;;;16.00;58.20;;;;;;5021640;28;20053;-63
2022/04/18 05:33:11;;;;;;;5.82;2.00;;;17.80;56.60;;;;;;5009795;28;20048;-64
2022/04/18 05:36:34;;;;;;;4.40;2.00;;;19.00;55.30;;;;;;5010991;28;20049;-64
2022/04/18 05:39:41;;;;;;;3.97;2.22;;;18.80;56.40;;;;;;5022727;28;20049;-73
2022/04/18 05:42:46;;;;;;;4.78;2.38;;;18.50;55.70;;;;;;5022789;28;20253;-73
2022/04/18 05:45:55;;;;;;;4.00;2.28;;;18.30;54.00;;;;;;5011749;28;20048;-73
2022/04/18 05:48:59;;;;;;;4.82;2.22;;;18.20;52.70;;;;;;5022457;28;20045;-72
2022/04/18 05:52:04;;;;;;;8.07;2.17;;;19.20;52.00;;;;;;5010032;28;20052;-73
2022/04/18 05:55:08;;;;;;;2.65;1.85;;;21.00;52.90;;;;;;5021327;28;20114;-73
2022/04/18 05:58:14;;;;;;;5.13;1.80;;;21.90;53.10;;;;;;5009716;28;20480;-73
2022/04/18 06:01:19;;;;;;;8.63;1.80;;;22.50;52.30;;;;;;5011015;28;20045;-72
2022/04/18 06:04:23;;;;;;;4.22;2.00;;;21.80;51.70;;;;;;5011194;28;20050;-73
2022/04/18 06:07:51;;;;;;;6.22;2.08;;;21.80;52.60;;;;;;5001386;28;20041;-64
2022/04/18 06:11:13;;;;;;;;;;;20.20;49.70;;;;;;5011926;28;20048;-65
2022/04/18 06:14:27;;;;;;;6.65;2.10;;;19.90;50.80;;;;;;5020349;28;19928;-64
2022/04/18 06:17:30;;;;;;;5.32;2.10;;;20.70;52.00;;;;;;5010187;28;20056;-63
2022/04/18 06:20:39;;;;;;;6.55;2.13;;;20.70;50.50;;;;;;5021525;28;20492;-63
2022/04/18 06:23:43;;;;;;;5.85;2.10;;;20.00;52.80;;;;;;5020777;28;20065;-63
2022/04/18 06:27:06;;;;;;;4.97;2.00;;;20.60;51.30;;;;;;5010102;28;20044;-63
2022/04/18 06:30:12;;;;;;;4.60;1.98;;;20.10;53.20;;;;;;5009717;28;20049;-62
2022/04/18 06:33:35;;;;;;;4.70;1.88;;;21.50;52.70;;;;;;5010724;28;20401;-63
2022/04/18 06:36:41;;;;;;;5.80;2.20;;;22.20;52.20;;;;;;5009313;28;20049;-63
2022/04/18 06:40:09;;;;;;;4.50;2.22;;;22.40;51.30;;;;;;5013286;28;20492;-64
2022/04/18 06:43:18;;;;;;;5.43;2.10;;;22.40;51.60;;;;;;5021135;28;20053;-63
2022/04/18 06:46:28;;;;;;;3.72;1.50;;;22.50;51.70;;;;;;5020682;28;20037;-63
2022/04/18 06:49:39;;;;;;;4.85;1.83;;;21.90;52.60;;;;;;5009426;28;20071;-63
2022/04/18 06:53:06;;;;;;;2.97;1.67;;;20.80;51.40;;;;;;5009411;28;20049;-63
2022/04/18 06:59:59;;;;;;;6.78;1.92;;;21.30;52.10;;;;;;5013132;28;20507;-63
2022/04/18 07:03:05;;;;;;;3.20;1.88;;;22.90;51.40;;;;;;5013154;28;20057;-64
2022/04/18 07:06:09;;;;;;;7.55;2.30;;;23.00;51.20;;;;;;5012658;28;20393;-63
2022/04/18 07:09:13;;;;;;;4.68;2.15;;;22.20;51.40;;;;;;5014091;28;20048;-73
2022/04/18 07:12:24;;;;;;;5.75;2.22;;;20.70;52.20;;;;;;5024829;28;20073;-64
2022/04/18 07:15:30;;;;;;;3.47;1.70;;;20.30;48.90;;;;;;5023051;28;20508;-64
2022/04/18 07:18:38;;;;;;;5.72;2.20;;;20.80;50.70;;;;;;5012597;28;20064;-63
2022/04/18 07:21:48;;;;;;;4.93;2.10;;;20.50;52.20;;;;;;5012421;28;20041;-64
2022/04/18 07:24:52;;;;;;;3.78;1.80;;;21.30;52.50;;;;;;5013426;28;20393;-63
2022/04/18 07:28:00;;;;;;;3.13;1.77;;;22.40;52.00;;;;;;5012774;28;20049;-64
2022/04/18 07:31:06;;;;;;;6.72;2.28;;;20.40;52.50;;;;;;5040926;28;20048;-63
2022/04/18 07:34:12;;;;;;;8.65;2.35;;;19.10;53.80;;;;;;5046758;28;20523;-64
2022/04/18 07:37:17;;;;;;;4.97;1.95;;;19.50;54.40;;;;;;5042596;28;20056;-64
2022/04/18 07:40:23;;;;;;;6.10;2.20;;;18.90;55.60;;;;;;5034796;28;20041;-63
2022/04/18 07:43:28;;;;;;;3.65;1.80;;;20.10;54.30;;;;;;5029041;28;20507;-63
2022/04/18 07:46:32;;;;;;;4.93;2.10;;;19.50;52.60;;;;;;5029581;28;20032;-63
2022/04/18 07:49:38;;;;;;;4.88;1.85;;;21.80;50.70;;;;;;5031754;28;20488;-63
2022/04/18 07:52:42;;;;;;;5.85;2.28;;;22.70;48.80;;;;;;5028370;28;20040;-63
2022/04/18 07:55:48;;;;;;;3.38;1.85;;;22.60;50.00;;;;;;5032061;28;20044;-63
2022/04/18 07:58:53;;;;;;;3.00;1.75;;;24.30;49.50;;;;;;5031817;28;20049;-63
2022/04/18 08:02:08;;;;;;;5.63;1.75;;;25.90;47.00;;;;;;5032187;28;20040;-63
2022/04/18 08:05:40;;;;;;;4.75;1.55;;;27.60;45.30;;;;;;5028575;28;20049;-64
2022/04/18 08:08:47;;;;;;;4.05;1.90;;;26.10;45.00;;;;;;5032333;28;20045;-64
2022/04/18 08:11:51;;;;;;;4.28;1.70;;;23.70;45.10;;;;;;5032171;28;20060;-63
2022/04/18 08:15:06;;;;;;;4.75;1.60;;;22.70;47.20;;;;;;5032137;28;20052;-64
2022/04/18 08:18:10;;;;;;;5.55;1.60;;;23.70;47.50;;;;;;5031054;28;20048;-64
2022/04/18 08:21:41;;;;;;;3.05;1.77;;;23.10;46.80;;;;;;5032951;28;20475;-64
2022/04/18 08:24:46;;;;;;;2.92;1.52;;;23.90;44.30;;;;;;5031807;28;20064;-63
2022/04/18 08:28:14;;;;;;;3.88;1.58;;;25.40;45.10;;;;;;5032275;28;20040;-64
2022/04/18 08:31:19;;;;;;;3.03;1.40;;;26.80;43.50;;;;;;5029891;28;20052;-63
2022/04/18 08:34:41;;;;;;;2.90;1.30;;;28.00;43.90;;;;;;5031205;28;20048;-64
2022/04/18 08:37:48;;;;;;;2.42;1.60;;;29.00;42.20;;;;;;5030658;28;20414;-64
2022/04/18 08:41:15;;;;;;;2.70;1.45;;;30.40;41.30;;;;;;5032160;28;20041;-64
2022/04/18 08:44:21;;;;;;;3.65;1.70;;;30.50;40.80;;;;;;5042710;28;20052;-65
2022/04/18 08:54:15;;;;;;;2.97;1.42;;;28.90;41.40;;;;;;5031103;28;20044;-63
2022/04/18 08:57:20;;;;;;;3.53;1.85;;;31.00;41.20;;;;;;5030907;28;20037;-64
2022/04/18 09:00:24;;;;;;;2.75;1.63;;;32.30;40.50;;;;;;5030837;28;20396;-64
2022/04/18 09:03:37;;;;;;;2.90;1.77;;;32.00;39.90;;;;;;5030942;28;20052;-64
2022/04/18 09:06:43;;;;;;;4.75;2.67;;;29.80;40.70;;;;;;5030400;28;20060;-64
2022/04/18 09:09:55;;;;;;;7.45;3.30;;;31.50;41.30;;;;;;5030924;28;20057;-64
2022/04/18 09:13:13;;;;;;;2.58;1.30;;;33.60;40.90;;;;;;5030764;28;20629;-63
2022/04/18 09:16:29;;;;;;;3.97;1.30;;;33.90;39.20;;;;;;5030192;28;20040;-64
2022/04/18 09:19:33;;;;;;;3.03;1.60;;;34.80;37.90;;;;;;5030058;28;20339;-63
2022/04/18 09:22:47;;;;;;;3.85;1.67;;;33.40;37.50;;;;;;5030258;28;20060;-64
2022/04/18 09:26:10;;;;;;;7.15;4.75;;;32.60;38.50;;;;;;5029856;28;20400;-63
2022/04/18 09:29:17;;;;;;;2.22;1.30;;;31.00;40.50;;;;;;5030395;28;20579;-64
2022/04/18 09:32:22;;;;;;;8.02;3.92;;;29.30;41.10;;;;;;5031105;28;20040;-63
2022/04/18 09:35:45;;;;;;;7.60;3.70;;;28.60;41.40;;;;;;5029977;28;20040;-64
2022/04/18 09:38:52;;;;;;;2.45;1.50;;;29.80;41.30;;;;;;5029452;28;20044;-63
2022/04/18 09:42:16;;;;;;;2.67;1.40;;;32.00;40.10;;;;;;5030429;28;20369;-73
2022/04/18 09:45:38;;;;;;;9.43;4.93;;;30.70;39.50;;;;;;5031019;28;20468;-73
2022/04/18 09:48:44;;;;;;;14.43;6.30;;;28.40;41.20;;;;;;5026933;28;20435;-73
2022/04/18 09:51:51;;;;;;;4.85;4.32;;;28.90;40.20;;;;;;5029038;28;20055;-73
2022/04/18 09:54:58;;;;;;;6.60;2.70;;;29.50;40.50;;;;;;5030145;28;20048;-73
2022/04/18 09:58:03;;;;;;;4.05;1.17;;;30.50;40.40;;;;;;5030973;28;20072;-73
2022/04/18 10:01:08;;;;;;;5.03;2.00;;;31.70;39.30;;;;;;5030065;28;20056;-72
2022/04/18 10:04:12;;;;;;;2.17;1.40;;;31.30;39.80;;;;;;5023341;28;20496;-73
2022/04/18 10:07:16;;;;;;;3.15;1.10;;;31.10;39.70;;;;;;5023564;28;20037;-74
2022/04/18 10:10:22;;;;;;;2.65;1.45;;;30.20;39.60;;;;;;5024732;28;20048;-73
2022/04/18 10:13:28;;;;;;;5.43;1.50;;;29.90;40.60;;;;;;5030178;28;20052;-73
2022/04/18 10:16:32;;;;;;;5.38;3.38;;;28.70;39.40;;;;;;5030100;28;20053;-73
2022/04/18 10:20:00;;;;;;;3.38;1.48;;;28.90;40.40;;;;;;5026141;28;20045;-73
2022/04/18 10:23:38;;;;;;;2.72;1.50;;;28.70;40.30;;;;;;5031142;28;20040;-74
2022/04/18 10:27:20;;;;;;;2.25;1.20;;;29.30;40.00;;;;;;5030444;28;20045;-73
2022/04/18 10:30:25;;;;;;;18.10;13.27;;;27.90;40.00;;;;;;5031261;28;20060;-63
2022/04/18 10:33:29;;;;;;;3.47;1.52;;;29.20;39.80;;;;;;5032778;28;20531;-63
2022/04/18 10:36:34;;;;;;;2.17;1.42;;;32.00;38.90;;;;;;5033420;28;20658;-63
2022/04/18 10:39:39;;;;;;;3.30;2.05;;;33.70;38.60;;;;;;5034702;28;20048;-63
2022/04/18 10:42:43;;;;;;;3.20;0.90;;;32.50;38.20;;;;;;5030897;28;20048;-64
2022/04/18 10:46:25;;;;;;;4.32;1.10;;;31.90;38.30;;;;;;5015023;28;20056;-64
2022/04/18 10:49:33;;;;;;;1.70;1.10;;;31.20;38.30;;;;;;5015010;28;20045;-73
2022/04/18 10:52:37;;;;;;;1.88;1.00;;;32.00;38.30;;;;;;5013614;28;20053;-73
2022/04/18 10:55:53;;;;;;;1.88;1.10;;;32.60;37.10;;;;;;5014194;28;20365;-74
2022/04/18 10:58:58;;;;;;;3.10;1.35;;;32.30;38.30;;;;;;5014370;28;20052;-73
2022/04/18 11:02:07;;;;;;;1.90;1.08;;;31.20;38.50;;;;;;5013954;28;20044;-73
2022/04/18 11:05:12;;;;;;;2.22;1.10;;;30.40;39.70;;;;;;5015262;28;20369;-62
2022/04/18 11:08:25;;;;;;;4.00;1.92;;;28.70;39.40;;;;;;5028528;28;20056;-63
2022/04/18 11:11:34;;;;;;;3.47;1.35;;;27.80;40.60;;;;;;5033443;28;20048;-63
2022/04/18 11:14:48;;;;;;;2.80;1.65;;;27.90;39.40;;;;;;5033650;28;20052;-74
2022/04/18 11:17:52;;;;;;;1.70;1.02;;;28.50;39.10;;;;;;5032542;28;20048;-74
2022/04/18 11:20:56;;;;;;;3.33;1.20;;;29.70;38.50;;;;;;5033343;28;20498;-73
2022/04/18 11:24:35;;;;;;;2.28;1.33;;;30.80;37.00;;;;;;5032844;28;20060;-73
2022/04/18 11:27:41;;;;;;;1.65;0.93;;;31.10;37.90;;;;;;5028330;28;20495;-73
2022/04/18 11:30:47;;;;;;;1.70;1.20;;;30.00;38.10;;;;;;5032963;28;20044;-73
2022/04/18 11:33:51;;;;;;;3.47;0.90;;;29.20;39.40;;;;;;5033034;28;20048;-73
2022/04/18 11:36:56;;;;;;;4.63;1.20;;;29.40;37.60;;;;;;5031675;28;20053;-74
2022/04/18 11:40:09;;;;;;;2.05;1.10;;;28.00;39.50;;;;;;5032941;28;20491;-73
2022/04/18 11:43:15;;;;;;;1.83;1.05;;;27.90;41.10;;;;;;5033043;28;20041;-63
2022/04/18 11:46:20;;;;;;;4.10;1.35;;;28.00;39.80;;;;;;5031729;28;20060;-63
2022/04/18 11:49:27;;;;;;;2.20;1.00;;;28.60;39.00;;;;;;5027791;28;20057;-73
2022/04/18 11:52:42;;;;;;;1.83;1.30;;;28.60;40.20;;;;;;5032768;28;20388;-74
2022/04/18 11:55:49;;;;;;;1.55;1.00;;;29.90;38.80;;;;;;5032393;28;20040;-75
2022/04/18 11:58:54;;;;;;;2.03;1.00;;;30.50;38.60;;;;;;5032518;28;20392;-64
2022/04/18 12:08:49;;;;;;;4.68;2.47;;;32.70;39.70;;;;;;5031372;28;20037;-64
2022/04/18 12:11:53;;;;;;;4.20;1.80;;;33.50;39.30;;;;;;5020339;28;20044;-74
2022/04/18 12:15:02;;;;;;;3.10;1.00;;;33.00;38.50;;;;;;5033344;28;20048;-74
2022/04/18 12:18:09;;;;;;;2.33;1.13;;;32.90;37.60;;;;;;5031876;28;20068;-75
2022/04/18 12:21:13;;;;;;;1.83;1.00;;;33.40;37.90;;;;;;5030919;28;20070;-73
2022/04/18 12:24:17;;;;;;;4.80;2.20;;;34.00;38.70;;;;;;5030884;28;20124;-74
2022/04/18 12:27:37;;;;;;;4.05;1.77;;;33.50;38.20;;;;;;5025780;28;20036;-74
2022/04/18 12:30:42;;;;;;;2.63;1.40;;;32.60;38.50;;;;;;5032220;28;20064;-73
2022/04/18 12:33:50;;;;;;;5.30;1.60;;;33.20;38.60;;;;;;5029443;28;20049;-73
2022/04/18 12:36:59;;;;;;;1.92;1.30;;;33.30;38.90;;;;;;5030921;28;20040;-73
2022/04/18 12:40:14;;;;;;;3.83;1.20;;;33.50;38.50;;;;;;5032301;28;20052;-65
2022/04/18 12:43:18;;;;;;;3.80;1.05;;;34.20;39.20;;;;;;5024571;28;20059;-64
2022/04/18 12:46:30;;;;;;;2.92;1.10;;;33.80;38.90;;;;;;5031756;28;20640;-64
2022/04/18 12:49:34;;;;;;;2.10;1.00;;;33.50;38.70;;;;;;5029147;28;20503;-64
2022/04/18 12:52:46;;;;;;;1.98;1.05;;;33.60;39.10;;;;;;5020123;28;20384;-65
2022/04/18 12:56:05;;;;;;;2.28;1.30;;;33.70;39.50;;;;;;5030559;28;20115;-63
2022/04/18 12:59:09;;;;;;;5.03;0.90;;;33.60;38.90;;;;;;5031518;28;20121;-63
2022/04/18 13:02:13;;;;;;;1.15;0.80;;;32.60;39.00;;;;;;5022694;28;20368;-64
2022/04/18 13:05:30;;;;;;;2.78;1.20;;;33.10;39.40;;;;;;5027343;28;20697;-64
2022/04/18 13:08:39;;;;;;;1.60;1.10;;;33.40;39.40;;;;;;5029389;28;20391;-64
2022/04/18 13:11:44;;;;;;;3.10;0.90;;;33.30;39.20;;;;;;5026517;28;20156;-63
2022/04/18 13:15:02;;;;;;;2.45;1.13;;;32.10;39.90;;;;;;5028702;28;20060;-63
2022/04/18 13:18:12;;;;;;;1.73;1.05;;;30.90;40.30;;;;;;5029927;28;20032;-64
2022/04/18 13:21:16;;;;;;;1.95;1.20;;;30.40;40.50;;;;;;5030717;28;20028;-64
2022/04/18 13:24:20;;;;;;;3.53;1.25;;;30.60;40.00;;;;;;5010850;28;20045;-63
2022/04/18 13:27:26;;;;;;;2.53;1.05;;;31.20;39.40;;;;;;5024203;28;20048;-73
2022/04/18 13:30:30;;;;;;;2.67;1.08;;;30.90;40.40;;;;;;5030679;28;20048;-73
2022/04/18 13:33:35;;;;;;;5.03;1.38;;;30.60;40.70;;;;;;5030483;28;20053;-72
2022/04/18 13:36:39;;;;;;;2.78;1.13;;;30.10;40.30;;;;;;5028502;28;20049;-73
2022/04/18 13:39:47;;;;;;;5.07;1.25;;;30.00;40.90;;;;;;5030641;28;20064;-73
2022/04/18 13:42:51;;;;;;;2.88;1.55;;;29.20;40.50;;;;;;5030637;28;20041;-72
2022/04/18 13:45:55;;;;;;;2.83;1.48;;;28.60;41.70;;;;;;5028463;28;20048;-74
2022/04/18 13:48:59;;;;;;;3.40;1.75;;;27.70;42.50;;;;;;5029361;28;20498;-74
2022/04/18 13:52:09;;;;;;;2.80;1.50;;;26.90;42.70;;;;;;5030248;28;20045;-74
2022/04/18 13:55:14;;;;;;;4.13;1.67;;;27.00;44.10;;;;;;5030256;28;20044;-74
2022/04/18 13:58:18;;;;;;;7.82;1.70;;;27.20;43.10;;;;;;5029929;28;20413;-74
2022/04/18 14:01:22;;;;;;;4.35;3.08;;;27.10;42.10;;;;;;5030088;28;20040;-74
2022/04/18 14:04:27;;;;;;;3.30;1.38;;;26.70;42.50;;;;;;5029842;28;20032;-73
2022/04/18 14:07:31;;;;;;;2.00;1.45;;;26.10;44.40;;;;;;5029366;28;20060;-73
2022/04/18 14:10:37;;;;;;;2.40;1.23;;;25.60;45.30;;;;;;5029816;28;20048;-73
2022/04/18 14:13:42;;;;;;;4.22;2.05;;;25.60;45.50;;;;;;5026640;28;20404;-74
2022/04/18 14:20:20;;;;;;;2.95;1.30;;;24.80;44.80;;;;;;5031021;28;20044;-74
2022/04/18 14:23:24;;;;;;;3.45;1.50;;;24.50;44.60;;;;;;5030480;28;20045;-73
2022/04/18 14:26:29;;;;;;;2.90;1.35;;;24.00;44.80;;;;;;5029883;28;20380;-73
2022/04/18 14:29:34;;;;;;;2.50;1.48;;;24.10;45.40;;;;;;5026389;28;20048;-65
2022/04/18 14:32:38;;;;;;;11.43;2.80;;;24.10;45.20;;;;;;5020021;28;20053;-64
2022/04/18 14:35:43;;;;;;;1.80;0.90;;;23.90;45.20;;;;;;5030296;28;20056;-64
2022/04/18 14:38:47;;;;;;;5.53;2.10;;;23.50;44.70;;;;;;5030638;28;20049;-64
2022/04/18 14:41:51;;;;;;;1.88;1.23;;;23.40;45.20;;;;;;5028755;28;20040;-63
2022/04/18 14:44:55;;;;;;;1.77;0.93;;;23.50;46.20;;;;;;5029204;28;20048;-63
2022/04/18 14:47:59;;;;;;;2.55;1.27;;;23.40;46.50;;;;;;5026623;28;20040;-64
2022/04/18 14:51:04;;;;;;;3.05;0.93;;;23.20;46.50;;;;;;5030701;28;20045;-65
2022/04/18 14:54:09;;;;;;;4.93;2.08;;;23.10;46.50;;;;;;5028674;28;20052;-64
2022/04/18 14:57:13;;;;;;;3.92;1.13;;;22.90;46.70;;;;;;5029438;28;20045;-64
2022/04/18 15:00:17;;;;;;;4.70;2.95;;;22.90;46.70;;;;;;5030477;28;20052;-64
2022/04/18 15:03:21;;;;;;;23.20;12.43;;;22.80;46.70;;;;;;5030299;28;20048;-64
2022/04/18 15:06:25;;;;;;;6.38;2.92;;;22.90;46.60;;;;;;5029641;28;20391;-64
2022/04/18 15:09:29;;;;;;;7.75;1.92;;;23.00;45.70;;;;;;5030348;28;20048;-64
2022/04/18 15:12:35;;;;;;;3.08;1.60;;;23.10;47.50;;;;;;5028802;28;20041;-64
2022/04/18 15:15:39;;;;;;;2.40;1.42;;;23.10;46.40;;;;;;5025933;28;20062;-64
2022/04/18 15:18:43;;;;;;;4.28;1.63;;;23.00;46.20;;;;;;5030630;28;20504;-65
2022/04/18 15:21:47;;;;;;;0.82;0.70;;;21.90;44.30;;;;;;5033378;28;20048;-65
2022/04/18 15:24:51;;;;;;;1.95;1.10;;;21.20;45.30;;;;;;5033080;28;20048;-64
2022/04/18 15:27:55;;;;;;;2.95;1.20;;;21.00;44.30;;;;;;5032938;28;20052;-64
2022/04/18 15:34:23;;;;;;;2.88;1.00;;;20.70;44.70;;;;;;5033067;28;20044;-64
2022/04/18 15:37:27;;;;;;;2.30;1.08;;;20.70;45.30;;;;;;5032732;28;20044;-64
2022/04/18 15:40:33;;;;;;;2.28;1.33;;;20.50;45.20;;;;;;5033280;28;20036;-63
2022/04/18 15:43:37;;;;;;;3.17;1.05;;;20.50;45.80;;;;;;5032620;28;20048;-64
2022/04/18 15:46:41;;;;;;;2.08;1.17;;;20.60;45.10;;;;;;5031817;28;20048;-64
2022/04/18 15:49:45;;;;;;;1.67;0.88;;;20.40;46.60;;;;;;5032827;28;20052;-64
2022/04/18 15:52:49;;;;;;;2.25;1.50;;;20.40;45.80;;;;;;5031789;28;20045;-64
2022/04/18 15:55:53;;;;;;;1.10;0.80;;;20.30;44.50;;;;;;5032644;28;20069;-64
2022/04/18 15:59:00;;;;;;;2.55;1.00;;;20.40;45.40;;;;;;5032443;28;20041;-64
2022/04/18 16:02:05;;;;;;;5.20;1.20;;;20.30;45.20;;;;;;5032486;28;20057;-64
2022/04/18 16:05:09;;;;;;;2.85;1.20;;;19.90;44.60;;;;;;5031597;28;20045;-64
2022/04/18 16:08:12;;;;;;;2.30;1.10;;;20.00;45.00;;;;;;5032051;28;20044;-64
2022/04/18 16:11:16;;;;;;;13.63;6.32;;;19.90;44.20;;;;;;5032398;28;20059;-64
2022/04/18 16:14:22;;;;;;;21.50;8.48;;;19.70;43.80;;;;;;5032076;28;20048;-64
2022/04/18 16:17:26;;;;;;;12.65;5.75;;;19.60;44.70;;;;;;5032044;28;20055;-64
2022/04/18 16:20:31;;;;;;;9.13;4.18;;;19.50;44.20;;;;;;5032128;28;20392;-64
2022/04/18 16:23:34;;;;;;;7.88;2.75;;;19.50;44.20;;;;;;5031605;28;20045;-63
2022/04/18 16:26:38;;;;;;;24.30;12.90;;;19.30;44.00;;;;;;5031617;28;20538;-64
2022/04/18 16:33:06;;;;;;;3.38;1.42;;;19.00;44.80;;;;;;5031510;28;20041;-64
2022/04/18 16:36:10;;;;;;;5.90;3.50;;;18.80;44.90;;;;;;5031126;28;20056;-63
2022/04/18 16:39:14;;;;;;;2.70;1.50;;;18.70;45.20;;;;;;5031936;28;20049;-64
2022/04/18 16:45:54;;;;;;;3.17;1.77;;;18.60;45.60;;;;;;5031767;28;20048;-64
2022/04/18 16:48:57;;;;;;;2.42;1.38;;;18.70;46.10;;;;;;5031494;28;20044;-64
2022/04/18 16:52:02;;;;;;;2.60;1.50;;;18.60;46.20;;;;;;5031654;28;20055;-64
2022/04/18 16:55:07;;;;;;;2.83;1.50;;;18.60;47.00;;;;;;5031586;28;20483;-64
2022/04/18 16:58:12;;;;;;;2.08;1.27;;;18.50;46.00;;;;;;5031189;28;20044;-64
2022/04/18 17:01:16;;;;;;;3.88;2.10;;;18.40;47.50;;;;;;5031511;28;20041;-64